Time;durP1;ratioP1;P1;durP2;ratioP2;P2;SDS_P1;SDS_P2;PMS_P1;PMS_P2;Temp;Humidity;BMP_temperature;BMP_pressure;BME280_temperature;BME280_humidity;BME280_pressure;Samples;Min_cycle;Max_cycle;Signal;HPM_P1;HPM_P2
2023/10/23 00:02:04;;;;;;;1.98;1.85;;;7.10;99.90;;;;;;6272333;28;20413;-77
2023/10/23 00:05:06;;;;;;;1.83;1.50;;;7.10;99.90;;;;;;6258380;28;20425;-76
2023/10/23 00:08:07;;;;;;;2.25;1.67;;;7.00;99.90;;;;;;6246547;28;20060;-77
2023/10/23 00:11:09;;;;;;;2.63;1.50;;;7.00;99.90;;;;;;6246518;28;20414;-76
2023/10/23 00:14:11;;;;;;;1.60;1.42;;;6.90;99.90;;;;;;6246511;28;20053;-76
2023/10/23 00:17:14;;;;;;;2.53;1.67;;;7.00;99.90;;;;;;6246967;28;20061;-76
2023/10/23 00:20:16;;;;;;;3.20;1.80;;;6.90;99.90;;;;;;6246977;28;20048;-77
2023/10/23 00:23:17;;;;;;;4.93;1.30;;;6.90;99.90;;;;;;6246886;28;20041;-77
2023/10/23 00:26:19;;;;;;;1.60;1.30;;;6.90;99.90;;;;;;6247776;28;20050;-77
2023/10/23 00:29:21;;;;;;;1.98;1.77;;;6.80;99.90;;;;;;6245100;28;20052;-77
2023/10/23 00:32:24;;;;;;;3.72;2.17;;;6.80;99.90;;;;;;6245986;28;20037;-77
2023/10/23 00:35:26;;;;;;;4.63;2.05;;;6.70;99.90;;;;;;6248455;28;20045;-77
2023/10/23 00:38:28;;;;;;;4.07;1.75;;;6.70;99.90;;;;;;6245882;28;20041;-77
2023/10/23 00:41:30;;;;;;;5.90;2.90;;;6.60;99.90;;;;;;6245658;28;20695;-77
2023/10/23 00:44:32;;;;;;;2.58;1.38;;;6.60;99.90;;;;;;6245463;28;20045;-77
2023/10/23 00:47:35;;;;;;;2.10;1.70;;;6.60;99.90;;;;;;6245438;28;20052;-77
2023/10/23 00:50:37;;;;;;;2.60;1.65;;;6.50;99.90;;;;;;6245726;28;20056;-76
2023/10/23 00:53:41;;;;;;;4.93;1.48;;;6.50;99.90;;;;;;6245680;28;20061;-76
2023/10/23 00:56:42;;;;;;;2.90;1.48;;;6.50;99.90;;;;;;6243507;28;20707;-77
2023/10/23 00:59:44;;;;;;;4.38;1.85;;;6.50;99.90;;;;;;6246422;28;20048;-77
2023/10/23 01:02:47;;;;;;;3.55;1.60;;;6.40;99.90;;;;;;6246360;28;20056;-76
2023/10/23 01:05:50;;;;;;;5.22;1.88;;;6.40;99.90;;;;;;6244835;28;20061;-76
2023/10/23 01:08:52;;;;;;;1.75;1.58;;;6.30;99.90;;;;;;6247028;28;20045;-77
2023/10/23 01:11:53;;;;;;;2.42;1.65;;;6.30;99.90;;;;;;6256606;28;20033;-75
2023/10/23 01:14:55;;;;;;;1.65;1.13;;;6.20;99.90;;;;;;6247481;28;20786;-78
2023/10/23 01:17:59;;;;;;;1.38;1.27;;;6.20;99.90;;;;;;6248129;28;20061;-76
2023/10/23 01:21:01;;;;;;;3.70;1.67;;;6.20;99.90;;;;;;6248211;28;20076;-78
2023/10/23 01:24:08;;;;;;;2.97;1.45;;;6.20;99.90;;;;;;6247267;28;20048;-77
2023/10/23 01:27:11;;;;;;;4.73;2.20;;;6.20;99.90;;;;;;6247861;28;20045;-75
2023/10/23 01:30:13;;;;;;;1.75;1.65;;;6.20;99.90;;;;;;6252944;28;20303;-77
2023/10/23 01:33:15;;;;;;;3.45;1.40;;;6.10;99.90;;;;;;6245256;28;20503;-76
2023/10/23 01:36:16;;;;;;;2.80;1.80;;;6.10;99.90;;;;;;6245328;28;20395;-77
2023/10/23 01:39:18;;;;;;;8.32;1.92;;;6.00;99.90;;;;;;6244934;28;20046;-76
2023/10/23 01:42:21;;;;;;;2.67;1.40;;;6.00;99.90;;;;;;6248170;28;20052;-75
2023/10/23 01:45:23;;;;;;;1.92;1.67;;;5.90;99.90;;;;;;6249203;28;20051;-76
2023/10/23 01:48:25;;;;;;;2.58;1.45;;;5.90;99.90;;;;;;6249400;28;20045;-76
2023/10/23 01:51:27;;;;;;;3.35;1.55;;;5.90;99.90;;;;;;6249212;28;20044;-75
2023/10/23 01:54:29;;;;;;;12.40;1.80;;;5.90;99.90;;;;;;6254168;28;20045;-74
2023/10/23 01:57:32;;;;;;;1.80;1.65;;;5.90;99.90;;;;;;6271986;28;20041;-75
2023/10/23 02:00:34;;;;;;;5.18;1.25;;;5.80;99.90;;;;;;6253480;28;20048;-77
2023/10/23 02:03:35;;;;;;;1.73;1.63;;;5.80;99.90;;;;;;6263957;28;20048;-77
2023/10/23 02:06:37;;;;;;;4.38;1.88;;;5.70;99.90;;;;;;6260878;28;20064;-77
2023/10/23 02:09:38;;;;;;;2.63;1.95;;;5.60;99.90;;;;;;6258498;28;20041;-76
2023/10/23 02:12:41;;;;;;;2.28;1.65;;;5.50;99.90;;;;;;6249532;28;20042;-77
2023/10/23 02:15:43;;;;;;;2.92;2.38;;;5.50;99.90;;;;;;6249005;28;20041;-77
2023/10/23 02:18:45;;;;;;;9.63;1.75;;;5.50;99.90;;;;;;6251982;28;20084;-77
2023/10/23 02:21:50;;;;;;;2.38;2.15;;;5.50;99.90;;;;;;6258230;28;20576;-77
2023/10/23 02:24:52;;;;;;;1.92;1.83;;;5.50;99.90;;;;;;6248535;28;20053;-76
2023/10/23 02:27:55;;;;;;;4.00;2.33;;;5.50;99.90;;;;;;6248125;28;20056;-76
2023/10/23 02:30:56;;;;;;;7.22;1.75;;;5.40;99.90;;;;;;6248213;28;20041;-77
2023/10/23 02:33:58;;;;;;;2.40;1.55;;;5.40;99.90;;;;;;6248822;28;20041;-77
2023/10/23 02:37:00;;;;;;;1.13;1.02;;;5.40;99.90;;;;;;6248259;28;20053;-77
2023/10/23 02:40:03;;;;;;;4.05;1.52;;;5.40;99.90;;;;;;6250634;28;20045;-77
2023/10/23 02:43:07;;;;;;;5.53;2.03;;;5.40;99.90;;;;;;6249431;28;20046;-78
2023/10/23 02:46:09;;;;;;;6.50;1.88;;;5.40;99.90;;;;;;6253100;28;20426;-77
2023/10/23 02:49:11;;;;;;;2.08;1.95;;;5.30;99.90;;;;;;6251530;28;20045;-77
2023/10/23 02:52:12;;;;;;;1.63;1.52;;;5.30;99.90;;;;;;6250670;28;20048;-77
2023/10/23 02:55:14;;;;;;;1.27;1.08;;;5.30;99.90;;;;;;6251929;28;20528;-78
2023/10/23 02:58:18;;;;;;;5.43;1.30;;;5.20;99.90;;;;;;6252335;28;20535;-77
2023/10/23 03:01:21;;;;;;;3.83;1.88;;;5.30;99.90;;;;;;6255869;28;20052;-78
2023/10/23 03:04:23;;;;;;;1.45;1.35;;;5.20;99.90;;;;;;6250272;28;20749;-77
2023/10/23 03:07:25;;;;;;;3.03;1.85;;;5.20;99.90;;;;;;6250050;28;20383;-77
2023/10/23 03:10:27;;;;;;;2.13;1.77;;;5.10;99.90;;;;;;6250531;28;20041;-76
2023/10/23 03:13:30;;;;;;;2.75;1.80;;;5.10;99.90;;;;;;6250064;28;20042;-76
2023/10/23 03:16:31;;;;;;;1.25;1.10;;;5.10;99.90;;;;;;6250494;28;20041;-77
2023/10/23 03:19:33;;;;;;;2.17;1.60;;;5.00;99.90;;;;;;6249579;28;20048;-78
2023/10/23 03:22:35;;;;;;;2.03;1.83;;;4.90;99.90;;;;;;6250125;28;20048;-77
2023/10/23 03:25:36;;;;;;;1.63;1.52;;;4.90;99.90;;;;;;6254009;28;20049;-77
2023/10/23 03:28:39;;;;;;;3.53;1.67;;;4.90;99.90;;;;;;6266307;28;20045;-77
2023/10/23 03:31:41;;;;;;;2.28;2.08;;;4.90;99.90;;;;;;6246988;28;20048;-76
2023/10/23 03:34:43;;;;;;;2.47;1.80;;;4.90;99.90;;;;;;6248250;28;20049;-76
2023/10/23 03:37:45;;;;;;;2.22;2.03;;;4.90;99.90;;;;;;6247825;28;20049;-77
2023/10/23 03:40:55;;;;;;;3.00;1.83;;;4.90;99.90;;;;;;6248491;28;20048;-77
2023/10/23 03:44:01;;;;;;;1.58;1.30;;;4.90;99.90;;;;;;6249127;28;20095;-76
2023/10/23 03:47:03;;;;;;;1.83;1.73;;;4.90;99.90;;;;;;6249673;28;20049;-78
2023/10/23 03:50:06;;;;;;;2.53;1.65;;;4.90;99.90;;;;;;6251482;28;20055;-79
2023/10/23 03:53:08;;;;;;;4.65;1.77;;;4.80;99.90;;;;;;6252232;28;20642;-77
2023/10/23 03:56:10;;;;;;;2.90;1.48;;;4.70;99.90;;;;;;6263515;28;20045;-77
2023/10/23 03:59:13;;;;;;;1.75;1.40;;;4.60;99.90;;;;;;6273521;28;20040;-78
2023/10/23 04:02:14;;;;;;;4.07;1.50;;;4.60;99.90;;;;;;6274977;28;20047;-78
2023/10/23 04:05:16;;;;;;;1.73;1.63;;;4.60;99.90;;;;;;6273500;28;20045;-77
2023/10/23 04:08:18;;;;;;;1.65;1.55;;;4.60;99.90;;;;;;6275714;28;20045;-77
2023/10/23 04:11:20;;;;;;;3.75;1.67;;;4.60;99.90;;;;;;6254132;28;20042;-77
2023/10/23 04:14:23;;;;;;;3.75;1.20;;;4.60;99.90;;;;;;6249658;28;20407;-78
2023/10/23 04:17:24;;;;;;;1.77;1.60;;;4.50;99.90;;;;;;6249613;28;20041;-78
2023/10/23 04:20:26;;;;;;;3.45;3.20;;;4.50;99.90;;;;;;6257876;28;20049;-76
2023/10/23 04:23:28;;;;;;;5.30;1.40;;;4.50;99.90;;;;;;6246630;28;20041;-78
2023/10/23 04:26:29;;;;;;;2.42;1.65;;;4.50;99.90;;;;;;6251901;28;20139;-76
2023/10/23 04:29:33;;;;;;;2.35;2.10;;;4.50;99.90;;;;;;6251281;28;20460;-76
2023/10/23 04:32:34;;;;;;;2.65;2.20;;;4.50;99.90;;;;;;6260573;28;20038;-77
2023/10/23 04:35:36;;;;;;;2.17;1.77;;;4.50;99.90;;;;;;6254680;28;20045;-76
2023/10/23 04:38:38;;;;;;;8.07;2.30;;;4.40;99.90;;;;;;6248585;28;20052;-77
2023/10/23 04:41:39;;;;;;;2.08;1.83;;;4.40;99.90;;;;;;6248169;28;20505;-78
2023/10/23 04:44:42;;;;;;;5.28;2.88;;;4.40;99.90;;;;;;6250197;28;20041;-77
2023/10/23 04:47:44;;;;;;;2.28;1.77;;;4.30;99.90;;;;;;6249801;28;20037;-77
2023/10/23 04:50:46;;;;;;;2.53;1.77;;;4.30;99.90;;;;;;6250070;28;20057;-78
2023/10/23 04:53:47;;;;;;;5.20;2.00;;;4.30;99.90;;;;;;6251286;28;20042;-77
2023/10/23 04:56:49;;;;;;;2.10;1.75;;;4.20;99.90;;;;;;6256493;28;20050;-76
2023/10/23 04:59:52;;;;;;;5.63;2.03;;;4.20;99.90;;;;;;6248541;28;20041;-76
2023/10/23 05:02:54;;;;;;;1.60;1.50;;;4.20;99.90;;;;;;6246763;28;20045;-77
2023/10/23 05:05:56;;;;;;;5.63;2.35;;;4.20;99.90;;;;;;6246406;28;20390;-76
2023/10/23 05:08:57;;;;;;;2.45;2.25;;;4.20;99.90;;;;;;6249780;28;20448;-76
2023/10/23 05:11:59;;;;;;;6.55;3.08;;;4.30;99.90;;;;;;6246402;28;20049;-77
2023/10/23 05:15:03;;;;;;;3.45;2.28;;;4.30;99.90;;;;;;6247716;28;20499;-76
2023/10/23 05:18:05;;;;;;;2.55;1.80;;;4.30;99.90;;;;;;6252875;28;20050;-77
2023/10/23 05:21:07;;;;;;;1.70;1.60;;;4.30;99.90;;;;;;6262380;28;20049;-78
2023/10/23 05:24:09;;;;;;;3.97;2.88;;;4.30;99.90;;;;;;6254154;28;20422;-78
2023/10/23 05:27:11;;;;;;;1.98;1.77;;;4.30;99.90;;;;;;6254379;28;20047;-77
2023/10/23 05:30:14;;;;;;;9.07;1.92;;;4.20;99.90;;;;;;6254663;28;20049;-78
2023/10/23 05:33:15;;;;;;;2.88;2.45;;;4.20;99.90;;;;;;6253609;28;20414;-77
2023/10/23 05:36:17;;;;;;;8.65;2.20;;;4.20;99.90;;;;;;6254400;28;20045;-77
2023/10/23 05:39:19;;;;;;;4.22;2.08;;;4.20;99.90;;;;;;6261903;28;20056;-74
2023/10/23 05:42:20;;;;;;;3.67;2.03;;;4.10;99.90;;;;;;6261326;28;20041;-76
2023/10/23 05:45:23;;;;;;;3.20;2.38;;;4.20;99.90;;;;;;6251590;28;20075;-76
2023/10/23 05:48:25;;;;;;;3.80;2.20;;;4.20;99.90;;;;;;6251087;28;20057;-76
2023/10/23 05:51:27;;;;;;;2.92;1.98;;;4.30;99.90;;;;;;6252701;28;20053;-77
2023/10/23 05:54:28;;;;;;;5.50;2.30;;;4.30;99.90;;;;;;6252947;28;20052;-76
2023/10/23 05:57:30;;;;;;;4.55;2.22;;;4.40;99.90;;;;;;6251161;28;20430;-76
2023/10/23 06:00:33;;;;;;;5.22;1.95;;;4.40;99.90;;;;;;6250333;28;20129;-76
2023/10/23 06:03:35;;;;;;;4.25;2.38;;;4.40;99.90;;;;;;6250464;28;20057;-76
2023/10/23 06:06:37;;;;;;;3.60;2.13;;;4.40;99.90;;;;;;6250127;28;20045;-76
2023/10/23 06:09:38;;;;;;;4.65;2.30;;;4.50;99.90;;;;;;6249873;28;20041;-77
2023/10/23 06:12:40;;;;;;;2.30;2.13;;;4.50;99.90;;;;;;6249317;28;20389;-77
2023/10/23 06:15:44;;;;;;;2.85;2.28;;;4.50;99.90;;;;;;6250429;28;20045;-77
2023/10/23 06:18:46;;;;;;;3.10;2.80;;;4.50;99.90;;;;;;6249113;28;20568;-76
2023/10/23 06:21:47;;;;;;;4.07;2.15;;;4.50;99.90;;;;;;6249530;28;20045;-75
2023/10/23 06:24:49;;;;;;;2.92;2.30;;;4.50;99.90;;;;;;6249297;28;20472;-75
2023/10/23 06:27:51;;;;;;;3.92;2.90;;;4.60;99.90;;;;;;6250305;28;20056;-76
2023/10/23 06:30:54;;;;;;;5.35;2.70;;;4.70;99.90;;;;;;6254519;28;20045;-76
2023/10/23 06:33:55;;;;;;;6.75;2.95;;;4.80;99.90;;;;;;6251392;28;20037;-75
2023/10/23 06:36:57;;;;;;;3.78;3.33;;;4.90;99.90;;;;;;6260853;28;20075;-77
2023/10/23 06:39:59;;;;;;;3.47;2.63;;;5.10;99.90;;;;;;6252317;28;20506;-77
2023/10/23 06:43:00;;;;;;;5.70;2.45;;;5.20;99.90;;;;;;6251639;28;20048;-77
2023/10/23 06:46:04;;;;;;;4.45;2.28;;;5.40;99.90;;;;;;6262312;28;20049;-76
2023/10/23 06:49:06;;;;;;;6.85;2.42;;;5.70;99.90;;;;;;6249603;28;20041;-76
2023/10/23 06:52:07;;;;;;;9.35;2.65;;;5.90;99.90;;;;;;6249335;28;20076;-77
2023/10/23 06:55:09;;;;;;;5.22;3.58;;;6.20;99.90;;;;;;6250129;28;20051;-77
2023/10/23 06:58:11;;;;;;;10.25;3.75;;;6.50;99.90;;;;;;6251142;28;20426;-77
2023/10/23 07:01:14;;;;;;;3.45;3.00;;;6.70;99.90;;;;;;6250842;28;20081;-77
2023/10/23 07:04:16;;;;;;;4.72;4.00;;;7.00;99.90;;;;;;6250876;28;20067;-77
2023/10/23 07:07:17;;;;;;;8.50;4.05;;;7.20;99.90;;;;;;6250989;28;20506;-76
2023/10/23 07:10:20;;;;;;;7.53;3.53;;;7.40;99.90;;;;;;6258267;28;20057;-77
2023/10/23 07:13:21;;;;;;;3.33;2.88;;;7.60;99.90;;;;;;6250674;28;20049;-77
2023/10/23 07:16:24;;;;;;;7.78;3.70;;;7.70;99.90;;;;;;6250604;28;20123;-77
2023/10/23 07:19:26;;;;;;;8.63;3.88;;;7.90;99.90;;;;;;6252411;28;20049;-77
2023/10/23 07:22:28;;;;;;;9.07;2.35;;;8.00;99.90;;;;;;6259775;28;20060;-77
2023/10/23 07:25:29;;;;;;;4.80;2.70;;;8.10;99.90;;;;;;6259992;28;20053;-77
2023/10/23 07:28:31;;;;;;;7.63;2.10;;;8.20;99.90;;;;;;6264068;28;20045;-77
2023/10/23 07:31:36;;;;;;;2.25;2.03;;;8.30;99.90;;;;;;6261675;28;20052;-77
2023/10/23 07:34:38;;;;;;;6.00;3.05;;;8.50;99.90;;;;;;6261891;28;20042;-76
2023/10/23 07:37:40;;;;;;;3.15;2.20;;;8.50;99.90;;;;;;6259326;28;20052;-75
2023/10/23 07:40:43;;;;;;;4.82;1.77;;;8.60;99.90;;;;;;6221694;28;20049;-76
2023/10/23 07:43:45;;;;;;;5.55;2.00;;;8.70;99.90;;;;;;6265835;28;20144;-76
2023/10/23 07:46:48;;;;;;;2.58;2.17;;;8.80;99.90;;;;;;6270096;28;20048;-76
2023/10/23 07:49:50;;;;;;;3.20;2.20;;;8.90;99.90;;;;;;6258103;28;20478;-78
2023/10/23 07:52:51;;;;;;;2.13;1.92;;;9.00;99.90;;;;;;6264564;28;20688;-76
2023/10/23 07:55:53;;;;;;;5.05;2.20;;;9.10;99.90;;;;;;6255788;28;20056;-76
2023/10/23 07:58:55;;;;;;;7.15;2.67;;;9.30;99.90;;;;;;6260042;28;20060;-77
2023/10/23 08:01:58;;;;;;;7.85;3.63;;;9.40;99.90;;;;;;6259422;28;20045;-76
2023/10/23 08:04:59;;;;;;;4.18;3.47;;;9.50;99.90;;;;;;6260804;28;20049;-78
2023/10/23 08:08:01;;;;;;;4.28;2.78;;;9.50;99.90;;;;;;6260691;28;20049;-77
2023/10/23 08:11:04;;;;;;;3.38;2.30;;;9.60;99.90;;;;;;6257240;28;20429;-78
2023/10/23 08:14:06;;;;;;;8.00;3.78;;;9.70;99.90;;;;;;6258704;28;20046;-78
2023/10/23 08:17:09;;;;;;;5.30;3.03;;;9.70;99.90;;;;;;6254112;28;20068;-76
2023/10/23 08:20:11;;;;;;;6.53;2.60;;;9.80;99.90;;;;;;6261004;28;20417;-76
2023/10/23 08:23:13;;;;;;;8.60;2.83;;;9.90;99.90;;;;;;6286341;28;20051;-76
2023/10/23 08:26:15;;;;;;;8.70;2.83;;;10.00;99.90;;;;;;6257533;28;20060;-76
2023/10/23 08:29:18;;;;;;;5.95;3.10;;;10.10;99.90;;;;;;6246194;28;20045;-76
2023/10/23 08:32:21;;;;;;;4.13;2.83;;;10.20;99.90;;;;;;6257862;28;20320;-76
2023/10/23 08:35:27;;;;;;;4.45;3.42;;;10.30;99.90;;;;;;6251650;28;20049;-76
2023/10/23 08:38:29;;;;;;;4.10;2.45;;;10.40;99.90;;;;;;6249401;28;20064;-76
2023/10/23 08:41:31;;;;;;;5.03;3.00;;;10.60;99.90;;;;;;6253709;28;20052;-76
2023/10/23 08:44:33;;;;;;;4.25;2.58;;;10.70;99.90;;;;;;6251836;28;20045;-76
2023/10/23 08:47:36;;;;;;;5.43;3.03;;;10.80;99.90;;;;;;6251641;28;20657;-76
2023/10/23 08:50:40;;;;;;;7.00;3.05;;;10.90;99.90;;;;;;6255460;28;20050;-76
2023/10/23 08:53:49;;;;;;;2.83;2.58;;;11.00;99.90;;;;;;6269340;28;20573;-76
2023/10/23 08:56:54;;;;;;;3.40;2.53;;;11.20;99.90;;;;;;6259723;28;20581;-77
2023/10/23 08:59:56;;;;;;;4.15;2.75;;;11.30;99.90;;;;;;6257353;28;20434;-76
2023/10/23 09:02:59;;;;;;;5.70;2.88;;;11.40;99.90;;;;;;6253559;28;20423;-76
2023/10/23 09:06:01;;;;;;;8.98;2.60;;;11.60;99.90;;;;;;6254315;28;20166;-76
2023/10/23 09:09:05;;;;;;;4.32;2.20;;;11.70;99.90;;;;;;6253574;28;20060;-75
2023/10/23 09:12:07;;;;;;;4.65;2.80;;;11.80;99.90;;;;;;6257097;28;20045;-76
2023/10/23 09:15:15;;;;;;;2.97;2.35;;;11.90;99.90;;;;;;6264737;28;20041;-76
2023/10/23 09:18:19;;;;;;;4.82;2.30;;;11.90;99.90;;;;;;6257978;28;20045;-76
2023/10/23 09:21:20;;;;;;;4.93;2.35;;;11.90;99.90;;;;;;6253247;28;20417;-76
2023/10/23 09:24:22;;;;;;;4.88;2.20;;;12.00;99.90;;;;;;6253171;28;20507;-75
2023/10/23 09:27:24;;;;;;;4.50;2.33;;;12.10;99.90;;;;;;6253487;28;20045;-75
2023/10/23 09:30:26;;;;;;;2.70;1.92;;;12.10;99.90;;;;;;6261061;28;20100;-76
2023/10/23 09:33:31;;;;;;;2.72;2.13;;;12.20;99.90;;;;;;6253603;28;20077;-77
2023/10/23 09:36:33;;;;;;;2.97;2.10;;;12.40;99.90;;;;;;6261360;28;20100;-75
2023/10/23 09:39:37;;;;;;;2.33;1.90;;;12.50;99.90;;;;;;6259574;28;20041;-76
2023/10/23 09:42:40;;;;;;;3.78;2.10;;;12.60;99.90;;;;;;6253055;28;20056;-76
2023/10/23 09:45:42;;;;;;;4.97;2.38;;;12.70;99.90;;;;;;6242768;28;20506;-76
2023/10/23 09:48:45;;;;;;;4.65;1.67;;;12.80;99.90;;;;;;6252363;28;20614;-76
2023/10/23 09:51:49;;;;;;;8.93;2.40;;;12.90;99.90;;;;;;6252914;28;20041;-75
2023/10/23 09:54:55;;;;;;;3.83;2.63;;;12.90;99.90;;;;;;6248048;28;20127;-76
2023/10/23 09:58:04;;;;;;;3.10;2.08;;;12.80;99.90;;;;;;6249491;28;20085;-76
2023/10/23 10:01:08;;;;;;;4.95;1.80;;;12.70;99.90;;;;;;6244603;28;20041;-76
2023/10/23 10:04:19;;;;;;;2.38;1.92;;;12.70;99.90;;;;;;6258787;28;20045;-75
2023/10/23 10:07:27;;;;;;;2.78;2.03;;;12.80;99.90;;;;;;6257453;28;20060;-76
2023/10/23 10:10:30;;;;;;;6.68;3.25;;;12.90;99.90;;;;;;6249266;28;20049;-75
2023/10/23 10:13:33;;;;;;;19.60;11.95;;;13.00;99.90;;;;;;6256869;28;20045;-76
2023/10/23 10:16:35;;;;;;;9.32;6.00;;;13.10;99.90;;;;;;6248584;28;20041;-76
2023/10/23 10:19:40;;;;;;;6.28;3.17;;;13.30;99.90;;;;;;6247993;28;20046;-76
2023/10/23 10:22:45;;;;;;;4.88;2.22;;;13.40;99.90;;;;;;6258890;28;20422;-76
2023/10/23 10:25:47;;;;;;;7.93;1.70;;;13.40;99.90;;;;;;6257123;28;20084;-76
2023/10/23 10:28:53;;;;;;;4.72;2.00;;;13.40;99.90;;;;;;6253020;28;20140;-76
2023/10/23 10:32:06;;;;;;;5.13;2.20;;;13.40;99.90;;;;;;6248489;28;20041;-75
2023/10/23 10:35:26;;;;;;;5.97;2.50;;;13.40;99.90;;;;;;6248195;28;20399;-76
2023/10/23 10:38:30;;;;;;;2.30;2.00;;;13.30;99.90;;;;;;6248208;28;20049;-76
2023/10/23 10:41:35;;;;;;;3.63;2.17;;;13.30;99.90;;;;;;6259952;28;20057;-76
2023/10/23 10:44:51;;;;;;;3.97;2.08;;;13.30;99.90;;;;;;6259774;28;20052;-77
2023/10/23 10:47:53;;;;;;;3.63;2.40;;;13.40;99.90;;;;;;6256484;28;20045;-75
2023/10/23 10:50:57;;;;;;;5.90;2.50;;;13.40;99.90;;;;;;6267237;28;20045;-76
2023/10/23 10:54:03;;;;;;;2.30;1.90;;;13.40;99.90;;;;;;6263541;28;20052;-75
2023/10/23 10:57:05;;;;;;;2.75;2.22;;;13.50;99.90;;;;;;6255882;28;20053;-76
2023/10/23 11:00:08;;;;;;;5.60;2.13;;;13.60;99.90;;;;;;6247345;28;20049;-75
2023/10/23 11:03:11;;;;;;;7.10;2.55;;;13.70;99.90;;;;;;6260058;28;20138;-76
2023/10/23 11:06:14;;;;;;;6.32;2.60;;;13.80;99.90;;;;;;6266082;28;20049;-76
2023/10/23 11:09:19;;;;;;;8.15;2.55;;;13.90;99.90;;;;;;6261730;28;20056;-75
2023/10/23 11:12:21;;;;;;;4.38;2.45;;;14.00;99.90;;;;;;6254453;28;20419;-75
2023/10/23 11:15:24;;;;;;;4.10;2.28;;;14.00;99.90;;;;;;6261117;28;20041;-75
2023/10/23 11:18:26;;;;;;;4.88;2.20;;;14.00;99.90;;;;;;6263589;28;20049;-76
2023/10/23 11:21:29;;;;;;;8.07;2.40;;;14.10;99.90;;;;;;6260571;28;20418;-75
2023/10/23 11:24:31;;;;;;;3.30;2.42;;;14.20;99.90;;;;;;6255355;28;20037;-76
2023/10/23 11:27:33;;;;;;;6.57;3.42;;;14.20;99.90;;;;;;6260118;28;20049;-76
2023/10/23 11:30:45;;;;;;;4.28;2.78;;;14.30;99.90;;;;;;6253508;28;20049;-76
2023/10/23 11:33:51;;;;;;;3.33;1.77;;;14.40;99.90;;;;;;6247412;28;20053;-76
2023/10/23 11:36:54;;;;;;;5.32;2.50;;;14.40;99.90;;;;;;6258257;28;20048;-76
2023/10/23 11:40:05;;;;;;;10.65;2.55;;;14.40;99.90;;;;;;6253270;28;20045;-75
2023/10/23 11:43:10;;;;;;;8.98;2.25;;;14.40;99.90;;;;;;6254667;28;20053;-76
2023/10/23 11:46:12;;;;;;;8.40;2.38;;;14.30;99.90;;;;;;6246961;28;20076;-76
2023/10/23 11:49:14;;;;;;;4.43;2.15;;;14.30;99.90;;;;;;6254338;28;20045;-75
2023/10/23 11:52:17;;;;;;;4.93;2.35;;;14.20;99.90;;;;;;6246592;28;20038;-76
2023/10/23 11:55:19;;;;;;;5.45;2.22;;;14.20;99.90;;;;;;6254434;28;20041;-76
2023/10/23 11:58:32;;;;;;;3.22;1.73;;;14.20;99.90;;;;;;6252878;28;20146;-76
2023/10/23 12:01:33;;;;;;;3.70;2.05;;;14.20;99.90;;;;;;6253505;28;20502;-76
2023/10/23 12:04:36;;;;;;;3.92;1.77;;;14.20;99.90;;;;;;6254760;28;20037;-76
2023/10/23 12:07:41;;;;;;;5.18;3.30;;;14.20;99.90;;;;;;6254962;28;20414;-76
2023/10/23 12:10:43;;;;;;;2.92;2.42;;;14.30;99.90;;;;;;6253096;28;20049;-75
2023/10/23 12:13:44;;;;;;;6.25;1.90;;;14.30;99.90;;;;;;6256779;28;20046;-76
2023/10/23 12:16:46;;;;;;;2.15;1.83;;;14.30;99.90;;;;;;6260864;28;20041;-75
2023/10/23 12:19:48;;;;;;;5.63;2.40;;;14.30;99.90;;;;;;6259061;28;20538;-77
2023/10/23 12:22:51;;;;;;;3.50;1.33;;;14.20;99.90;;;;;;6246563;28;20045;-76
2023/10/23 12:25:54;;;;;;;4.60;1.92;;;14.20;99.90;;;;;;6257003;28;20048;-77
2023/10/23 12:28:56;;;;;;;3.08;1.80;;;14.20;99.90;;;;;;6259061;28;20041;-75
2023/10/23 12:31:58;;;;;;;1.60;1.30;;;14.20;99.90;;;;;;6245537;28;20045;-76
2023/10/23 12:35:02;;;;;;;5.68;1.88;;;14.20;99.90;;;;;;6245592;28;20045;-76
2023/10/23 12:38:06;;;;;;;5.18;1.67;;;14.20;99.90;;;;;;6263333;28;20095;-76
2023/10/23 12:41:07;;;;;;;1.63;1.50;;;14.10;99.90;;;;;;6258909;28;20041;-76
2023/10/23 12:44:09;;;;;;;5.07;2.08;;;14.10;99.90;;;;;;6258114;28;20041;-75
2023/10/23 12:47:12;;;;;;;4.32;2.53;;;14.00;99.90;;;;;;6256963;28;20119;-76
2023/10/23 12:50:13;;;;;;;4.20;1.52;;;14.00;99.90;;;;;;6260520;28;20055;-76
2023/10/23 12:53:17;;;;;;;2.10;1.35;;;14.00;99.90;;;;;;6259036;28;20037;-77
2023/10/23 12:56:18;;;;;;;3.88;1.70;;;14.00;99.90;;;;;;6263176;28;20045;-77
2023/10/23 12:59:20;;;;;;;1.88;1.58;;;14.00;99.90;;;;;;6252282;28;20064;-76
2023/10/23 13:02:22;;;;;;;2.22;1.80;;;14.10;99.90;;;;;;6260630;28;20498;-76
2023/10/23 13:05:24;;;;;;;3.53;1.70;;;14.10;99.90;;;;;;6254887;28;20052;-76
2023/10/23 13:08:27;;;;;;;4.20;1.85;;;14.20;99.90;;;;;;6260077;28;20438;-77
2023/10/23 13:11:30;;;;;;;3.38;1.80;;;14.20;99.90;;;;;;6263091;28;20049;-77
2023/10/23 13:14:32;;;;;;;2.05;1.63;;;14.20;99.90;;;;;;6255807;28;20050;-76
2023/10/23 13:17:33;;;;;;;3.83;2.15;;;14.20;99.90;;;;;;6259470;28;20063;-77
2023/10/23 13:20:35;;;;;;;4.88;1.67;;;14.20;99.90;;;;;;6263430;28;20037;-77
2023/10/23 13:23:38;;;;;;;2.30;1.70;;;14.10;99.90;;;;;;6247020;28;20136;-76
2023/10/23 13:26:40;;;;;;;4.07;2.65;;;14.00;99.90;;;;;;6273088;28;20047;-75
2023/10/23 13:29:42;;;;;;;4.82;3.25;;;13.80;99.90;;;;;;6265690;28;20049;-77
2023/10/23 13:32:43;;;;;;;7.45;2.03;;;13.50;99.90;;;;;;6260291;28;20080;-77
2023/10/23 13:35:45;;;;;;;7.30;4.10;;;13.00;99.90;;;;;;6260630;28;20038;-77
2023/10/23 13:38:49;;;;;;;3.40;1.83;;;12.80;99.90;;;;;;6264461;28;20052;-76
2023/10/23 13:41:52;;;;;;;4.07;2.00;;;12.60;99.90;;;;;;6259978;28;20060;-76
2023/10/23 13:44:54;;;;;;;3.30;2.22;;;12.60;99.90;;;;;;6260352;28;20048;-76
2023/10/23 13:47:56;;;;;;;8.05;3.42;;;12.60;99.90;;;;;;6262490;28;20056;-77
2023/10/23 13:50:58;;;;;;;6.07;2.92;;;12.70;99.90;;;;;;6263025;28;20056;-76
2023/10/23 13:54:01;;;;;;;2.92;2.30;;;12.80;99.90;;;;;;6261023;28;20405;-76
2023/10/23 13:57:02;;;;;;;6.85;2.50;;;12.90;99.90;;;;;;6262616;28;20038;-77
2023/10/23 14:00:06;;;;;;;3.10;2.35;;;12.90;99.90;;;;;;6261063;28;20045;-77
2023/10/23 14:03:08;;;;;;;8.45;3.10;;;12.90;99.90;;;;;;6261694;28;20391;-76
2023/10/23 14:06:10;;;;;;;4.78;2.78;;;12.90;99.90;;;;;;6262027;28;20047;-76
2023/10/23 14:09:13;;;;;;;10.25;2.55;;;13.00;99.90;;;;;;6260609;28;20045;-76
2023/10/23 14:12:15;;;;;;;3.47;2.78;;;13.00;99.90;;;;;;6261861;28;20128;-76
2023/10/23 14:15:17;;;;;;;5.57;2.13;;;13.10;99.90;;;;;;6260065;28;20042;-76
2023/10/23 14:18:19;;;;;;;8.52;3.50;;;13.20;99.90;;;;;;6257223;28;20061;-76
2023/10/23 14:21:21;;;;;;;9.10;8.13;;;13.40;99.90;;;;;;6256804;28;20088;-76
2023/10/23 14:24:26;;;;;;;63.97;57.38;;;13.50;99.90;;;;;;6262833;28;20044;-76
2023/10/23 14:27:27;;;;;;;17.95;16.45;;;13.60;99.90;;;;;;6258465;28;20040;-76
2023/10/23 14:30:29;;;;;;;5.55;5.13;;;13.60;99.90;;;;;;6258688;28;20045;-76
2023/10/23 14:33:31;;;;;;;5.45;2.67;;;13.60;99.90;;;;;;6248376;28;20422;-76
2023/10/23 14:36:32;;;;;;;8.77;6.82;;;13.60;99.90;;;;;;6250744;28;20045;-76
2023/10/23 14:39:35;;;;;;;3.28;2.45;;;13.60;99.90;;;;;;6267123;28;20128;-76
2023/10/23 14:42:37;;;;;;;5.25;2.92;;;13.60;99.90;;;;;;6257307;28;20473;-76
2023/10/23 14:45:40;;;;;;;2.83;2.03;;;13.60;99.90;;;;;;6261194;28;20038;-76
2023/10/23 14:48:42;;;;;;;2.70;1.42;;;13.70;99.90;;;;;;6255479;28;20048;-76
2023/10/23 14:51:43;;;;;;;4.45;1.92;;;13.80;99.90;;;;;;6251260;28;20048;-76
2023/10/23 14:54:46;;;;;;;1.70;1.60;;;13.90;99.90;;;;;;6247519;28;20056;-76
2023/10/23 14:57:48;;;;;;;2.95;2.17;;;13.80;99.90;;;;;;6248048;28;20495;-75
2023/10/23 15:00:50;;;;;;;2.65;2.35;;;13.80;99.90;;;;;;6250771;28;20045;-75
2023/10/23 15:03:55;;;;;;;4.68;4.28;;;13.80;99.90;;;;;;6256689;28;20056;-77
2023/10/23 15:06:57;;;;;;;5.10;3.70;;;13.80;99.90;;;;;;6247987;28;20136;-76
2023/10/23 15:10:00;;;;;;;5.20;3.13;;;13.70;99.90;;;;;;6266173;28;20061;-77
2023/10/23 15:13:01;;;;;;;5.85;2.83;;;13.70;99.90;;;;;;6250134;28;20051;-77
2023/10/23 15:16:04;;;;;;;5.72;3.20;;;13.70;99.90;;;;;;6248130;28;20041;-76
2023/10/23 15:19:05;;;;;;;6.43;2.80;;;13.70;99.90;;;;;;6248143;28;20065;-77
2023/10/23 15:22:07;;;;;;;8.88;4.10;;;13.70;99.90;;;;;;6253017;28;20051;-75
2023/10/23 15:25:10;;;;;;;4.05;2.70;;;13.70;99.90;;;;;;6252954;28;20416;-77
2023/10/23 15:28:12;;;;;;;5.82;2.75;;;13.70;99.90;;;;;;6248519;28;20045;-77
2023/10/23 15:31:14;;;;;;;4.38;2.53;;;13.70;99.90;;;;;;6248818;28;20069;-76
2023/10/23 15:34:16;;;;;;;3.00;2.80;;;13.70;99.90;;;;;;6278625;28;20071;-78
2023/10/23 15:37:19;;;;;;;6.72;3.17;;;13.60;99.90;;;;;;6261992;28;20039;-76
2023/10/23 15:40:22;;;;;;;4.25;2.92;;;13.60;99.90;;;;;;6253659;28;20052;-77
2023/10/23 15:43:24;;;;;;;6.55;5.95;;;13.60;99.90;;;;;;6247001;28;20052;-77
2023/10/23 15:46:26;;;;;;;3.60;2.72;;;13.60;99.90;;;;;;6255029;28;20044;-77
2023/10/23 15:49:28;;;;;;;3.28;2.97;;;13.60;99.90;;;;;;6261486;28;20045;-75
2023/10/23 15:52:30;;;;;;;4.18;3.40;;;13.60;99.90;;;;;;6246489;28;20425;-76
2023/10/23 15:55:33;;;;;;;4.78;3.33;;;13.60;99.90;;;;;;6246685;28;20124;-77
2023/10/23 15:58:35;;;;;;;6.47;3.25;;;13.60;99.90;;;;;;6246693;28;20052;-76